Time;durP1;ratioP1;P1;durP2;ratioP2;P2;SDS_P1;SDS_P2;PMS_P1;PMS_P2;Temp;Humidity;BMP_temperature;BMP_pressure;BME280_temperature;BME280_humidity;BME280_pressure;Samples;Min_cycle;Max_cycle;Signal;HPM_P1;HPM_P2
2022/05/07 00:01:23;;;;;;;14.75;13.27;;;;;;;;;;4923577;29;20134;-79
2022/05/07 00:03:50;;;;;;;15.00;13.50;;;;;;;;;;4923693;29;20043;-79
2022/05/07 00:06:18;;;;;;;13.90;12.50;;;;;;;;;;4916697;29;20103;-79
2022/05/07 00:08:45;;;;;;;14.60;12.52;;;;;;;;;;4900992;29;20119;-79
2022/05/07 00:11:15;;;;;;;13.10;11.70;;;;;;;;;;4921121;28;20048;-79
2022/05/07 00:13:42;;;;;;;11.43;10.45;;;;;;;;;;4903980;29;20289;-79
2022/05/07 00:18:56;;;;;;;14.30;12.80;;;;;;;;;;4906019;29;20060;-79
2022/05/07 00:21:24;;;;;;;15.43;13.90;;;;;;;;;;4906228;29;20047;-79
2022/05/07 00:23:51;;;;;;;12.07;10.98;;;;;;;;;;4904138;29;20579;-79
2022/05/07 00:26:19;;;;;;;10.05;9.05;;;;;;;;;;4905532;29;20640;-79
2022/05/07 00:28:46;;;;;;;11.50;10.23;;;;;;;;;;4892182;29;20071;-78
2022/05/07 00:31:13;;;;;;;12.20;11.00;;;;;;;;;;4917733;29;20040;-78
2022/05/07 00:33:41;;;;;;;13.32;11.27;;;;;;;;;;4905770;29;20051;-78
2022/05/07 00:36:08;;;;;;;14.40;13.18;;;;;;;;;;4906794;29;20134;-78
2022/05/07 00:38:36;;;;;;;12.90;11.70;;;;;;;;;;4889200;29;20039;-78
2022/05/07 00:41:03;;;;;;;15.00;13.50;;;;;;;;;;4902557;29;20047;-78
2022/05/07 00:43:35;;;;;;;17.63;15.73;;;;;;;;;;4900451;29;20075;-78
2022/05/07 00:46:03;;;;;;;17.42;14.95;;;;;;;;;;4902609;29;20437;-78
2022/05/07 00:48:30;;;;;;;17.08;14.15;;;;;;;;;;4902170;29;20044;-78
2022/05/07 00:53:47;;;;;;;16.13;14.52;;;;;;;;;;4918446;29;20044;-79
2022/05/07 00:56:15;;;;;;;13.85;12.45;;;;;;;;;;4922459;29;20051;-78
2022/05/07 00:58:43;;;;;;;16.63;15.02;;;;;;;;;;4900646;29;20453;-78
2022/05/07 01:01:14;;;;;;;18.60;15.27;;;;;;;;;;4902993;29;20063;-78
2022/05/07 01:03:42;;;;;;;17.55;15.70;;;;;;;;;;4902471;29;20572;-79
2022/05/07 01:06:11;;;;;;;14.90;13.45;;;;;;;;;;4905254;29;20047;-78
2022/05/07 01:08:39;;;;;;;16.80;15.05;;;;;;;;;;4887306;29;20063;-78
2022/05/07 01:11:07;;;;;;;15.85;14.35;;;;;;;;;;4902692;29;20062;-78
2022/05/07 01:13:35;;;;;;;15.18;12.93;;;;;;;;;;4901522;29;20106;-78
2022/05/07 01:16:03;;;;;;;16.45;14.75;;;;;;;;;;4915567;29;20051;-78
2022/05/07 01:18:35;;;;;;;;;;;;;;;;;;4888984;29;20397;-78
2022/05/07 01:21:09;;;;;;;16.80;14.27;;;;;;;;;;4913283;29;19926;-78
2022/05/07 01:23:37;;;;;;;15.07;13.38;;;;;;;;;;4922074;29;20052;-78
2022/05/07 01:26:05;;;;;;;15.32;12.73;;;;;;;;;;4886194;29;20255;-78
2022/05/07 01:28:35;;;;;;;15.80;13.93;;;;;;;;;;4886132;29;20070;-77
2022/05/07 01:31:05;;;;;;;16.92;15.10;;;;;;;;;;4902801;29;20275;-78
2022/05/07 01:33:34;;;;;;;18.42;15.07;;;;;;;;;;4911383;29;20044;-78
2022/05/07 01:36:09;;;;;;;16.20;14.60;;;;;;;;;;4900937;29;20052;-78
2022/05/07 01:38:39;;;;;;;14.82;13.10;;;;;;;;;;4883783;29;20048;-78
2022/05/07 01:41:07;;;;;;;13.15;11.85;;;;;;;;;;4902883;29;20057;-78
2022/05/07 01:43:34;;;;;;;16.38;14.35;;;;;;;;;;4912973;29;20110;-78
2022/05/07 01:46:02;;;;;;;15.15;13.60;;;;;;;;;;4900886;29;20462;-78
2022/05/07 01:48:31;;;;;;;15.50;13.73;;;;;;;;;;4902053;29;20043;-78
2022/05/07 01:50:59;;;;;;;17.27;14.68;;;;;;;;;;4916764;29;20135;-79
2022/05/07 01:53:31;;;;;;;17.10;15.30;;;;;;;;;;4902970;29;20475;-78
2022/05/07 01:55:59;;;;;;;18.30;15.63;;;;;;;;;;4921466;29;20122;-78
2022/05/07 01:58:38;;;;;;;16.00;13.10;;;;;;;;;;4914916;29;20067;-79
2022/05/07 02:01:10;;;;;;;14.77;13.38;;;;;;;;;;4903989;29;20119;-78
2022/05/07 02:03:38;;;;;;;14.18;12.15;;;;;;;;;;4905730;29;20043;-79
2022/05/07 02:06:07;;;;;;;15.68;13.88;;;;;;;;;;4905990;29;20059;-78
2022/05/07 02:08:34;;;;;;;11.32;10.32;;;;;;;;;;4887147;29;20051;-79
2022/05/07 02:11:06;;;;;;;13.65;10.52;;;;;;;;;;4887550;29;20051;-79
2022/05/07 02:13:35;;;;;;;13.52;12.23;;;;;;;;;;4888369;29;20151;-78
2022/05/07 02:16:04;;;;;;;11.50;10.38;;;;;;;;;;4901562;29;20064;-78
2022/05/07 02:18:32;;;;;;;12.27;11.07;;;;;;;;;;4915281;29;20099;-79
2022/05/07 02:21:00;;;;;;;13.30;12.02;;;;;;;;;;4903333;29;20092;-78
2022/05/07 02:23:28;;;;;;;9.57;8.70;;;;;;;;;;4897104;29;20428;-78
2022/05/07 02:25:55;;;;;;;9.88;8.65;;;;;;;;;;4918758;29;20127;-79
2022/05/07 02:28:23;;;;;;;9.45;8.65;;;;;;;;;;4901821;29;20051;-78
2022/05/07 02:30:51;;;;;;;9.90;8.27;;;;;;;;;;4900052;29;20054;-79
2022/05/07 02:33:19;;;;;;;9.57;8.70;;;;;;;;;;4916134;29;20080;-79
2022/05/07 02:35:47;;;;;;;12.68;10.63;;;;;;;;;;4903207;29;20031;-79
2022/05/07 02:38:14;;;;;;;10.65;9.75;;;;;;;;;;4903563;29;20148;-78
2022/05/07 02:43:37;;;;;;;9.20;8.40;;;;;;;;;;4913652;29;20043;-79
2022/05/07 02:46:10;;;;;;;11.80;10.75;;;;;;;;;;4927873;29;20125;-79
2022/05/07 02:48:44;;;;;;;9.60;8.80;;;;;;;;;;4912352;29;20054;-78
2022/05/07 02:51:13;;;;;;;10.95;10.05;;;;;;;;;;4903158;29;20047;-79
2022/05/07 02:53:43;;;;;;;9.82;9.07;;;;;;;;;;4931192;29;20051;-78
2022/05/07 02:56:11;;;;;;;11.68;10.57;;;;;;;;;;4913231;29;20044;-79
2022/05/07 02:58:38;;;;;;;9.18;8.32;;;;;;;;;;4910728;29;20355;-78
2022/05/07 03:01:07;;;;;;;11.23;10.25;;;;;;;;;;4920919;29;20124;-78
2022/05/07 03:03:34;;;;;;;12.18;10.93;;;;;;;;;;4913372;29;20491;-78
2022/05/07 03:06:05;;;;;;;11.85;10.63;;;;;;;;;;4897150;29;20111;-78
2022/05/07 03:08:35;;;;;;;12.05;10.95;;;;;;;;;;4921982;29;20039;-79
2022/05/07 03:11:03;;;;;;;12.95;11.45;;;;;;;;;;4911454;29;20044;-79
2022/05/07 03:13:31;;;;;;;11.68;10.48;;;;;;;;;;4929235;29;20031;-77
2022/05/07 03:15:59;;;;;;;11.38;10.20;;;;;;;;;;4925501;28;20564;-79
2022/05/07 03:18:26;;;;;;;11.07;10.00;;;;;;;;;;4910529;29;20035;-79
2022/05/07 03:20:55;;;;;;;10.60;9.65;;;;;;;;;;4900622;29;20135;-79
2022/05/07 03:23:22;;;;;;;12.43;11.23;;;;;;;;;;4944390;29;20078;-78
2022/05/07 03:25:59;;;;;;;10.30;9.32;;;;;;;;;;4895539;29;20539;-78
2022/05/07 03:28:26;;;;;;;9.27;8.40;;;;;;;;;;4925966;29;20189;-78
2022/05/07 03:30:53;;;;;;;9.38;8.55;;;;;;;;;;4908684;29;20082;-78
2022/05/07 03:33:21;;;;;;;9.73;8.73;;;;;;;;;;4917007;29;20049;-79
2022/05/07 03:35:48;;;;;;;11.07;9.98;;;;;;;;;;4908267;29;20040;-79
2022/05/07 03:38:16;;;;;;;12.80;11.52;;;;;;;;;;4925616;29;20048;-78
2022/05/07 03:40:59;;;;;;;11.18;10.18;;;;;;;;;;4910815;29;20123;-79
2022/05/07 03:43:33;;;;;;;11.32;10.10;;;;;;;;;;4903286;29;20048;-79
2022/05/07 03:46:02;;;;;;;9.77;8.88;;;;;;;;;;4917312;29;20063;-78
2022/05/07 03:48:30;;;;;;;9.65;8.82;;;;;;;;;;4926732;29;20189;-79
2022/05/07 03:50:57;;;;;;;12.07;10.98;;;;;;;;;;4899738;29;20047;-78
2022/05/07 03:53:31;;;;;;;12.13;10.88;;;;;;;;;;4914210;29;20517;-79
2022/05/07 03:56:07;;;;;;;10.93;9.82;;;;;;;;;;4910156;29;20070;-79
2022/05/07 03:58:37;;;;;;;9.93;9.02;;;;;;;;;;4929584;29;20051;-78
2022/05/07 04:01:15;;;;;;;9.50;8.48;;;;;;;;;;4912064;29;20054;-78
2022/05/07 04:03:43;;;;;;;9.88;9.02;;;;;;;;;;4911041;29;20055;-78
2022/05/07 04:06:12;;;;;;;10.45;9.55;;;;;;;;;;4895688;29;20078;-78
2022/05/07 04:08:39;;;;;;;10.75;9.75;;;;;;;;;;4921243;29;20050;-79
2022/05/07 04:11:08;;;;;;;11.52;9.20;;;;;;;;;;4905402;29;20572;-79
2022/05/07 04:13:35;;;;;;;12.77;11.57;;;;;;;;;;4910780;29;20047;-79
2022/05/07 04:16:04;;;;;;;12.88;11.65;;;;;;;;;;4910368;29;20039;-78
2022/05/07 04:18:36;;;;;;;12.90;10.90;;;;;;;;;;4935320;28;20051;-78
2022/05/07 04:21:09;;;;;;;13.60;11.50;;;;;;;;;;4929596;29;20051;-78
2022/05/07 04:23:37;;;;;;;13.13;11.18;;;;;;;;;;4890719;29;20052;-79
2022/05/07 04:26:04;;;;;;;12.13;11.02;;;;;;;;;;4913295;29;20110;-78
2022/05/07 04:28:39;;;;;;;12.45;11.18;;;;;;;;;;4928467;29;20043;-79
2022/05/07 04:31:08;;;;;;;18.40;12.75;;;;;;;;;;4900958;29;20048;-78
2022/05/07 04:33:35;;;;;;;12.40;11.18;;;;;;;;;;4912763;29;20071;-78
2022/05/07 04:36:08;;;;;;;13.23;11.82;;;;;;;;;;4907893;29;20047;-79
2022/05/07 04:38:39;;;;;;;13.52;12.13;;;;;;;;;;4921691;29;20046;-78
2022/05/07 04:41:09;;;;;;;14.90;12.10;;;;;;;;;;4904426;29;20043;-78
2022/05/07 04:43:37;;;;;;;14.32;12.70;;;;;;;;;;4911794;29;20511;-78
2022/05/07 04:46:05;;;;;;;13.48;11.45;;;;;;;;;;4890425;29;20179;-78
2022/05/07 04:48:35;;;;;;;15.48;12.25;;;;;;;;;;4915488;29;20138;-78
2022/05/07 04:51:04;;;;;;;13.35;11.15;;;;;;;;;;4910144;29;20059;-78
2022/05/07 04:54:05;;;;;;;11.20;10.07;;;;;;;;;;4913537;29;20484;-78
2022/05/07 04:56:33;;;;;;;11.32;10.20;;;;;;;;;;4912738;29;20118;-78
2022/05/07 04:59:04;;;;;;;11.45;10.32;;;;;;;;;;4932926;29;20044;-78
2022/05/07 05:01:38;;;;;;;13.80;11.35;;;;;;;;;;4924631;29;20072;-78
2022/05/07 05:04:10;;;;;;;13.10;11.70;;;;;;;;;;4906718;29;20107;-78
2022/05/07 05:06:39;;;;;;;10.82;9.73;;;;;;;;;;4917407;29;20495;-79
2022/05/07 05:09:12;;;;;;;13.00;11.73;;;;;;;;;;4893172;29;20059;-78
2022/05/07 05:11:48;;;;;;;11.95;10.65;;;;;;;;;;4909708;29;20044;-78
2022/05/07 05:17:03;;;;;;;10.93;9.93;;;;;;;;;;4922017;29;20122;-79
2022/05/07 05:19:31;;;;;;;12.07;10.98;;;;;;;;;;4911831;29;20515;-78
2022/05/07 05:22:04;;;;;;;11.13;10.00;;;;;;;;;;4909882;29;20401;-78
2022/05/07 05:24:34;;;;;;;11.63;10.50;;;;;;;;;;4915037;29;20039;-79
2022/05/07 05:27:02;;;;;;;10.05;9.15;;;;;;;;;;4875535;29;20056;-77
2022/05/07 05:29:36;;;;;;;10.77;9.75;;;;;;;;;;4910494;29;20072;-78
2022/05/07 05:32:07;;;;;;;11.77;10.57;;;;;;;;;;4895395;29;20048;-78
2022/05/07 05:34:38;;;;;;;11.83;10.70;;;;;;;;;;4912288;29;20055;-78
2022/05/07 05:37:06;;;;;;;10.88;9.90;;;;;;;;;;4924965;29;20496;-78
2022/05/07 05:39:40;;;;;;;10.55;9.55;;;;;;;;;;4911867;29;20099;-78
2022/05/07 05:42:08;;;;;;;12.35;10.27;;;;;;;;;;4914667;29;20063;-78
2022/05/07 05:44:41;;;;;;;11.90;10.70;;;;;;;;;;4918350;29;20122;-78
2022/05/07 05:47:12;;;;;;;11.13;10.13;;;;;;;;;;4910636;29;20437;-78
2022/05/07 05:49:41;;;;;;;10.35;9.35;;;;;;;;;;4907251;29;20043;-78
2022/05/07 05:52:08;;;;;;;12.55;10.48;;;;;;;;;;4910608;29;20039;-78
2022/05/07 05:54:37;;;;;;;10.05;9.15;;;;;;;;;;4896026;29;20092;-77
2022/05/07 05:57:06;;;;;;;10.38;9.32;;;;;;;;;;4898176;29;20040;-78
2022/05/07 05:59:35;;;;;;;11.10;10.00;;;;;;;;;;4915411;29;20158;-78
2022/05/07 06:02:03;;;;;;;11.70;10.60;;;;;;;;;;4913894;29;20067;-79
2022/05/07 06:04:40;;;;;;;10.35;9.43;;;;;;;;;;4916735;29;20054;-79
2022/05/07 06:07:14;;;;;;;10.88;9.93;;;;;;;;;;4922564;29;20055;-79
2022/05/07 06:09:45;;;;;;;11.53;10.43;;;;;;;;;;4909829;29;20048;-78
2022/05/07 06:12:21;;;;;;;9.80;8.90;;;;;;;;;;4912210;29;20492;-79
2022/05/07 06:14:55;;;;;;;9.95;9.13;;;;;;;;;;4899842;29;20075;-79
2022/05/07 06:17:27;;;;;;;10.93;9.93;;;;;;;;;;4914370;29;20039;-79
2022/05/07 06:19:55;;;;;;;10.02;9.02;;;;;;;;;;4912978;29;20043;-79
2022/05/07 06:22:23;;;;;;;9.63;8.73;;;;;;;;;;4911980;29;20088;-79
2022/05/07 06:27:56;;;;;;;9.68;8.82;;;;;;;;;;4901375;29;20055;-79
2022/05/07 06:30:30;;;;;;;9.30;8.40;;;;;;;;;;4915230;29;20488;-79
2022/05/07 06:32:59;;;;;;;8.60;7.70;;;;;;;;;;4915619;29;20131;-79
2022/05/07 06:35:34;;;;;;;8.43;7.72;;;;;;;;;;4908908;29;20043;-78
2022/05/07 06:38:09;;;;;;;8.73;7.68;;;;;;;;;;4898560;29;20044;-78
2022/05/07 06:40:38;;;;;;;8.48;7.78;;;;;;;;;;4915544;29;20046;-79
2022/05/07 06:43:10;;;;;;;9.18;8.38;;;;;;;;;;4928359;29;20040;-79
2022/05/07 06:46:04;;;;;;;8.85;7.95;;;;;;;;;;4911954;29;20048;-79
2022/05/07 06:48:37;;;;;;;8.27;7.60;;;;;;;;;;4909056;29;20055;-79
2022/05/07 06:51:11;;;;;;;7.75;6.97;;;;;;;;;;4918557;29;20079;-80
2022/05/07 06:53:38;;;;;;;8.35;7.65;;;;;;;;;;4902499;29;20098;-78
2022/05/07 06:56:06;;;;;;;7.38;6.65;;;;;;;;;;4919465;29;20463;-79
2022/05/07 06:58:37;;;;;;;7.05;6.55;;;;;;;;;;4931593;29;20043;-79
2022/05/07 07:01:04;;;;;;;8.55;7.30;;;;;;;;;;4921806;29;20046;-79
2022/05/07 07:03:33;;;;;;;8.82;7.95;;;;;;;;;;4913982;29;20043;-79
2022/05/07 07:06:02;;;;;;;7.38;6.70;;;;;;;;;;4921435;29;20055;-79
2022/05/07 07:08:30;;;;;;;8.90;8.00;;;;;;;;;;4900978;29;20051;-79
2022/05/07 07:10:58;;;;;;;8.02;7.35;;;;;;;;;;4931860;29;20119;-79
2022/05/07 07:13:25;;;;;;;10.90;7.03;;;;;;;;;;4914427;29;20050;-78
2022/05/07 07:15:54;;;;;;;8.48;7.88;;;;;;;;;;4928003;29;20499;-78
2022/05/07 07:18:22;;;;;;;8.85;7.95;;;;;;;;;;4897097;29;20050;-78
2022/05/07 07:20:50;;;;;;;8.43;7.72;;;;;;;;;;4934041;29;20051;-79
2022/05/07 07:23:18;;;;;;;8.43;7.78;;;;;;;;;;4927919;29;20408;-79
2022/05/07 07:25:46;;;;;;;7.72;7.13;;;;;;;;;;4914228;29;20054;-79
2022/05/07 07:28:13;;;;;;;8.23;7.50;;;;;;;;;;4913589;29;20053;-79
2022/05/07 07:30:41;;;;;;;8.63;7.93;;;;;;;;;;4914540;29;20052;-80
2022/05/07 07:33:12;;;;;;;7.78;6.97;;;;;;;;;;4911953;29;20051;-79
2022/05/07 07:35:40;;;;;;;;;;;;;;;;;;4928164;29;20047;-78
2022/05/07 07:38:08;;;;;;;7.10;6.60;;;;;;;;;;4925680;29;19935;-79
2022/05/07 07:40:35;;;;;;;6.88;6.28;;;;;;;;;;4915466;29;20051;-79
2022/05/07 07:43:03;;;;;;;7.15;6.65;;;;;;;;;;4914464;29;20047;-78
2022/05/07 07:48:16;;;;;;;7.10;6.45;;;;;;;;;;4930909;29;20069;-79
2022/05/07 07:50:46;;;;;;;6.57;6.03;;;;;;;;;;4916402;29;20040;-80
2022/05/07 07:53:14;;;;;;;6.68;6.07;;;;;;;;;;4935449;29;20279;-79
2022/05/07 07:55:42;;;;;;;6.45;5.90;;;;;;;;;;4935602;29;20035;-78
2022/05/07 07:58:11;;;;;;;6.70;6.20;;;;;;;;;;4935346;29;20412;-79
2022/05/07 08:00:38;;;;;;;6.30;5.90;;;;;;;;;;4930151;29;20035;-79
2022/05/07 08:03:13;;;;;;;6.72;6.22;;;;;;;;;;4930175;29;20103;-79
2022/05/07 08:05:42;;;;;;;6.75;6.22;;;;;;;;;;4915475;29;20040;-78
2022/05/07 08:13:44;;;;;;;7.22;6.60;;;;;;;;;;4931092;29;20107;-79
2022/05/07 08:16:12;;;;;;;7.15;6.45;;;;;;;;;;4912747;29;20144;-78
2022/05/07 08:18:43;;;;;;;6.82;6.20;;;;;;;;;;4928476;29;20087;-80
2022/05/07 08:21:13;;;;;;;7.10;5.70;;;;;;;;;;4935023;29;20442;-80
2022/05/07 08:23:41;;;;;;;8.52;6.13;;;;;;;;;;4917442;29;20035;-78
2022/05/07 08:26:09;;;;;;;6.95;6.00;;;;;;;;;;4916298;29;20164;-78
2022/05/07 08:28:37;;;;;;;6.93;6.43;;;;;;;;;;4914688;29;20143;-79
2022/05/07 08:31:05;;;;;;;7.25;6.68;;;;;;;;;;4905442;29;20122;-77
2022/05/07 08:33:33;;;;;;;7.85;7.20;;;;;;;;;;4918635;29;20040;-79
2022/05/07 08:36:01;;;;;;;7.95;7.05;;;;;;;;;;4917738;29;20460;-79
2022/05/07 08:38:28;;;;;;;6.85;6.28;;;;;;;;;;4920278;29;20048;-79
2022/05/07 08:40:56;;;;;;;7.68;6.90;;;;;;;;;;4935925;29;20052;-79
2022/05/07 08:43:24;;;;;;;7.60;6.93;;;;;;;;;;4914781;29;20456;-79
2022/05/07 08:45:53;;;;;;;7.45;6.85;;;;;;;;;;4896113;29;20067;-79
2022/05/07 08:48:20;;;;;;;7.30;6.65;;;;;;;;;;4918516;29;20055;-80
2022/05/07 08:50:54;;;;;;;8.00;7.20;;;;;;;;;;4932525;29;20059;-79
2022/05/07 08:53:22;;;;;;;7.20;6.63;;;;;;;;;;4902773;29;20051;-78
2022/05/07 08:55:56;;;;;;;7.45;6.80;;;;;;;;;;4919072;28;20057;-78
2022/05/07 08:58:25;;;;;;;6.82;6.30;;;;;;;;;;4906647;29;20134;-79
2022/05/07 09:00:52;;;;;;;7.55;6.95;;;;;;;;;;4932303;29;20212;-78
2022/05/07 09:03:20;;;;;;;7.65;7.07;;;;;;;;;;4896736;29;20063;-77
2022/05/07 09:05:47;;;;;;;7.40;6.78;;;;;;;;;;4908543;29;20048;-79
2022/05/07 09:08:15;;;;;;;7.85;6.72;;;;;;;;;;4930407;29;20039;-80
2022/05/07 09:10:42;;;;;;;8.00;7.30;;;;;;;;;;4915112;29;20039;-79
2022/05/07 09:13:42;;;;;;;7.60;6.88;;;;;;;;;;4895886;29;20047;-79
2022/05/07 09:16:36;;;;;;;7.65;6.95;;;;;;;;;;4892541;29;20488;-79
2022/05/07 09:19:04;;;;;;;7.88;6.38;;;;;;;;;;4897431;29;20052;-79
2022/05/07 09:21:32;;;;;;;7.97;7.32;;;;;;;;;;4916166;29;20039;-79
2022/05/07 09:24:00;;;;;;;7.50;6.85;;;;;;;;;;4914767;29;20043;-80
2022/05/07 09:26:32;;;;;;;8.05;7.25;;;;;;;;;;4910470;29;20096;-79
2022/05/07 09:29:00;;;;;;;9.73;7.70;;;;;;;;;;4928505;29;20431;-79
2022/05/07 09:31:33;;;;;;;7.72;7.13;;;;;;;;;;4930883;29;20059;-79
2022/05/07 09:37:18;;;;;;;7.55;7.05;;;;;;;;;;4907394;29;20055;-79
2022/05/07 09:39:53;;;;;;;8.02;7.22;;;;;;;;;;4898527;29;20107;-79
2022/05/07 09:42:22;;;;;;;8.63;7.68;;;;;;;;;;4928653;29;20047;-79
2022/05/07 09:44:50;;;;;;;7.40;6.63;;;;;;;;;;4936183;29;20535;-78
2022/05/07 09:47:17;;;;;;;8.30;7.40;;;;;;;;;;4927658;29;20113;-79
2022/05/07 09:52:32;;;;;;;10.55;7.70;;;;;;;;;;4930494;29;20074;-78
2022/05/07 09:57:46;;;;;;;7.20;6.70;;;;;;;;;;4933258;29;20047;-79
2022/05/07 10:00:16;;;;;;;7.22;6.72;;;;;;;;;;4914772;29;20135;-78
2022/05/07 10:03:03;;;;;;;6.85;6.32;;;;;;;;;;4909607;29;20055;-78
2022/05/07 10:05:50;;;;;;;6.85;6.35;;;;;;;;;;4939079;29;20447;-80
2022/05/07 10:08:40;;;;;;;6.97;6.47;;;;;;;;;;4927998;29;20047;-80
2022/05/07 10:11:22;;;;;;;10.55;9.43;;;;;;;;;;4898383;29;20156;-79
2022/05/07 10:13:54;;;;;;;7.25;6.72;;;;;;;;;;4930598;29;20397;-79
2022/05/07 10:16:41;;;;;;;7.25;6.72;;;;;;;;;;4911081;29;20047;-78
2022/05/07 10:19:39;;;;;;;7.78;7.05;;;;;;;;;;4897248;29;20048;-79
2022/05/07 10:22:16;;;;;;;6.97;6.40;;;;;;;;;;4907710;29;20055;-78
2022/05/07 10:24:44;;;;;;;7.22;6.68;;;;;;;;;;4909351;29;20054;-79
2022/05/07 10:27:31;;;;;;;6.53;6.13;;;;;;;;;;4905497;29;20493;-78
2022/05/07 10:30:08;;;;;;;8.57;6.68;;;;;;;;;;4923880;29;20070;-80
2022/05/07 10:32:57;;;;;;;7.15;6.55;;;;;;;;;;4923126;29;20535;-79
2022/05/07 10:35:45;;;;;;;6.95;6.43;;;;;;;;;;4922597;29;20693;-79
2022/05/07 10:38:50;;;;;;;6.72;6.18;;;;;;;;;;4903298;29;20052;-78
2022/05/07 10:41:50;;;;;;;6.80;6.30;;;;;;;;;;4877899;29;20087;-79
2022/05/07 10:44:32;;;;;;;8.43;6.82;;;;;;;;;;4890593;29;20058;-78
2022/05/07 10:47:13;;;;;;;7.28;6.57;;;;;;;;;;4883038;29;20057;-80
2022/05/07 10:50:12;;;;;;;8.30;7.60;;;;;;;;;;4903146;29;20063;-79
2022/05/07 10:52:39;;;;;;;6.90;6.30;;;;;;;;;;4886022;29;20973;-79
2022/05/07 10:55:17;;;;;;;6.70;6.10;;;;;;;;;;4915977;29;20039;-78
2022/05/07 10:57:46;;;;;;;7.20;6.60;;;;;;;;;;4901030;29;20489;-79
2022/05/07 11:00:18;;;;;;;8.50;7.80;;;;;;;;;;4902889;29;20302;-79
2022/05/07 11:02:46;;;;;;;;;;;;;;;;;;4919377;29;20048;-79
2022/05/07 11:05:28;;;;;;;7.05;6.45;;;;;;;;;;4920507;29;19960;-79
2022/05/07 11:08:02;;;;;;;6.97;6.47;;;;;;;;;;4905094;29;20055;-79
2022/05/07 11:10:30;;;;;;;7.93;7.22;;;;;;;;;;4924063;29;20146;-79
2022/05/07 11:13:08;;;;;;;7.45;6.75;;;;;;;;;;4907776;29;20349;-80
2022/05/07 11:15:37;;;;;;;7.05;6.55;;;;;;;;;;4921430;29;20623;-79
2022/05/07 11:18:14;;;;;;;7.25;6.65;;;;;;;;;;4918166;29;20521;-80
2022/05/07 11:20:43;;;;;;;6.88;6.35;;;;;;;;;;4905036;29;20132;-79
2022/05/07 11:23:13;;;;;;;7.30;6.80;;;;;;;;;;4923409;29;20420;-79
2022/05/07 11:25:45;;;;;;;7.35;6.75;;;;;;;;;;4918647;29;20048;-79
2022/05/07 11:28:12;;;;;;;7.57;6.95;;;;;;;;;;4889569;29;20400;-79
2022/05/07 11:30:49;;;;;;;8.02;7.22;;;;;;;;;;4904472;29;20059;-79
2022/05/07 11:33:24;;;;;;;6.88;6.22;;;;;;;;;;4922751;28;20067;-79
2022/05/07 11:36:01;;;;;;;7.15;6.65;;;;;;;;;;4920442;29;20051;-79
2022/05/07 11:38:29;;;;;;;7.95;7.25;;;;;;;;;;4890270;29;20051;-79
2022/05/07 11:40:56;;;;;;;8.48;7.68;;;;;;;;;;4895345;29;20139;-79
2022/05/07 11:46:10;;;;;;;7.22;6.10;;;;;;;;;;4923767;29;20373;-80
2022/05/07 11:48:38;;;;;;;7.45;6.95;;;;;;;;;;4892972;29;20048;-78
2022/05/07 11:51:06;;;;;;;7.78;7.10;;;;;;;;;;4908480;29;20473;-79
2022/05/07 11:53:36;;;;;;;6.80;6.18;;;;;;;;;;4920586;29;20100;-79
2022/05/07 11:56:10;;;;;;;6.35;5.75;;;;;;;;;;4905989;29;20048;-78
2022/05/07 11:58:47;;;;;;;6.70;6.22;;;;;;;;;;4922097;29;20412;-79
2022/05/07 12:01:21;;;;;;;7.50;6.90;;;;;;;;;;4921025;29;20135;-79
2022/05/07 12:03:50;;;;;;;6.72;6.22;;;;;;;;;;4924387;29;20151;-78
2022/05/07 12:06:43;;;;;;;6.70;6.20;;;;;;;;;;4892018;29;20055;-78
2022/05/07 12:09:12;;;;;;;7.57;6.90;;;;;;;;;;4925834;29;20055;-78
2022/05/07 12:11:42;;;;;;;7.22;6.47;;;;;;;;;;4904973;29;20048;-79
2022/05/07 12:14:10;;;;;;;7.68;6.60;;;;;;;;;;4924522;29;20424;-78
2022/05/07 12:19:34;;;;;;;7.47;6.80;;;;;;;;;;4921904;29;20137;-78
2022/05/07 12:30:22;;;;;;;5.68;5.28;;;;;;;;;;4898499;29;20150;-78
2022/05/07 12:32:54;;;;;;;8.10;6.22;;;;;;;;;;4908638;29;20564;-78
2022/05/07 12:35:21;;;;;;;5.03;4.47;;;;;;;;;;4902321;29;20071;-79
2022/05/07 12:37:49;;;;;;;5.40;5.00;;;;;;;;;;4925875;29;20043;-78
2022/05/07 12:40:18;;;;;;;5.20;4.80;;;;;;;;;;4926830;29;20140;-78
2022/05/07 12:42:48;;;;;;;5.25;4.93;;;;;;;;;;4908248;29;20044;-79
2022/05/07 12:45:15;;;;;;;5.00;4.70;;;;;;;;;;4907639;29;20082;-78
2022/05/07 12:47:42;;;;;;;4.90;4.43;;;;;;;;;;4907644;29;20048;-79
2022/05/07 12:50:10;;;;;;;4.95;4.65;;;;;;;;;;4907206;29;20693;-79
2022/05/07 12:52:37;;;;;;;4.70;4.40;;;;;;;;;;4923916;29;20051;-78
2022/05/07 12:55:05;;;;;;;3.92;3.72;;;;;;;;;;4918137;29;20430;-78
2022/05/07 12:57:33;;;;;;;4.15;3.95;;;;;;;;;;4906462;29;20050;-79
2022/05/07 13:00:01;;;;;;;4.13;3.83;;;;;;;;;;4922682;29;20040;-78
2022/05/07 13:02:31;;;;;;;4.32;4.03;;;;;;;;;;4902909;29;20087;-78
2022/05/07 13:04:58;;;;;;;4.25;3.95;;;;;;;;;;4907472;29;20182;-79
2022/05/07 13:07:39;;;;;;;4.25;4.05;;;;;;;;;;4903712;29;20050;-78
2022/05/07 13:10:07;;;;;;;4.30;4.10;;;;;;;;;;4917791;29;20048;-78
2022/05/07 13:12:39;;;;;;;4.53;3.33;;;;;;;;;;4905736;29;20062;-79
2022/05/07 13:15:07;;;;;;;5.43;3.58;;;;;;;;;;4907731;29;20535;-79
2022/05/07 13:17:35;;;;;;;4.05;3.85;;;;;;;;;;4922487;29;20077;-79
2022/05/07 13:20:02;;;;;;;4.00;3.80;;;;;;;;;;4909058;29;20413;-79
2022/05/07 13:22:34;;;;;;;4.13;3.72;;;;;;;;;;4905527;29;20070;-79
2022/05/07 13:25:01;;;;;;;3.50;3.30;;;;;;;;;;4916515;29;20123;-79
2022/05/07 13:27:30;;;;;;;4.57;4.00;;;;;;;;;;4922018;29;20059;-79
2022/05/07 13:29:59;;;;;;;4.40;4.10;;;;;;;;;;4910197;29;20528;-80
2022/05/07 13:32:41;;;;;;;4.38;4.03;;;;;;;;;;4908886;29;20120;-79
2022/05/07 13:35:09;;;;;;;8.30;3.70;;;;;;;;;;4908956;29;20079;-80
2022/05/07 13:37:36;;;;;;;3.35;3.15;;;;;;;;;;4922072;29;20058;-80
2022/05/07 13:40:07;;;;;;;3.80;3.60;;;;;;;;;;4893138;29;20107;-79
2022/05/07 13:42:41;;;;;;;3.30;3.17;;;;;;;;;;4893020;29;20235;-79
2022/05/07 13:45:09;;;;;;;3.15;3.03;;;;;;;;;;4906957;29;20154;-80
2022/05/07 13:47:40;;;;;;;3.80;3.50;;;;;;;;;;4925128;29;20051;-80
2022/05/07 13:50:08;;;;;;;3.83;3.63;;;;;;;;;;4922798;29;20047;-79
2022/05/07 13:52:36;;;;;;;3.10;3.00;;;;;;;;;;4909910;29;20069;-80
2022/05/07 13:55:08;;;;;;;4.45;4.15;;;;;;;;;;4907826;29;20051;-79
2022/05/07 13:57:36;;;;;;;3.80;3.50;;;;;;;;;;4921573;29;20043;-79
2022/05/07 14:00:05;;;;;;;4.00;3.70;;;;;;;;;;4896225;28;20120;-80
2022/05/07 14:02:42;;;;;;;4.05;3.70;;;;;;;;;;4908022;29;20207;-80
2022/05/07 14:05:10;;;;;;;3.33;3.13;;;;;;;;;;4930616;29;20138;-80
2022/05/07 14:07:37;;;;;;;2.72;2.63;;;;;;;;;;4890320;29;20056;-81
2022/05/07 14:10:05;;;;;;;3.40;3.20;;;;;;;;;;4926495;29;20051;-81
2022/05/07 14:12:34;;;;;;;4.60;3.15;;;;;;;;;;4906640;29;20629;-81
2022/05/07 14:15:02;;;;;;;3.40;3.20;;;;;;;;;;4894032;29;20509;-80
2022/05/07 14:17:30;;;;;;;3.00;2.90;;;;;;;;;;4912656;29;20071;-81
2022/05/07 14:19:59;;;;;;;3.25;3.00;;;;;;;;;;4925875;29;20099;-81
2022/05/07 14:22:28;;;;;;;3.10;2.95;;;;;;;;;;4924761;29;20064;-81
2022/05/07 14:24:56;;;;;;;3.60;3.30;;;;;;;;;;4928340;29;20458;-81
2022/05/07 14:27:40;;;;;;;3.05;2.67;;;;;;;;;;4893810;29;20540;-81
2022/05/07 14:30:19;;;;;;;6.82;3.47;;;;;;;;;;4911335;29;20044;-81
2022/05/07 14:32:46;;;;;;;3.78;2.75;;;;;;;;;;4926288;29;20054;-81
2022/05/07 14:35:14;;;;;;;3.22;3.03;;;;;;;;;;4910689;29;20047;-81
2022/05/07 14:37:41;;;;;;;3.10;2.90;;;;;;;;;;4907120;29;20055;-80
2022/05/07 14:42:55;;;;;;;3.08;2.88;;;;;;;;;;4907349;29;20056;-81
2022/05/07 14:45:23;;;;;;;3.90;3.60;;;;;;;;;;4927447;29;20059;-81
2022/05/07 14:47:52;;;;;;;3.50;3.30;;;;;;;;;;4893414;29;20071;-82
2022/05/07 14:50:20;;;;;;;2.95;2.83;;;;;;;;;;4926962;29;20131;-82
2022/05/07 14:52:48;;;;;;;3.38;2.97;;;;;;;;;;4923449;29;20047;-81
2022/05/07 14:55:15;;;;;;;2.88;2.78;;;;;;;;;;4893893;29;20062;-81
2022/05/07 14:57:43;;;;;;;2.70;2.60;;;;;;;;;;4913737;29;20755;-82
2022/05/07 15:00:11;;;;;;;2.90;2.70;;;;;;;;;;4909385;29;20517;-80
2022/05/07 15:02:42;;;;;;;3.90;2.80;;;;;;;;;;4927474;29;20126;-80
2022/05/07 15:05:13;;;;;;;3.60;3.30;;;;;;;;;;4908554;29;20374;-81
2022/05/07 15:07:41;;;;;;;3.60;2.95;;;;;;;;;;4907807;29;20047;-81
2022/05/07 15:12:56;;;;;;;2.97;2.80;;;;;;;;;;4925771;29;20505;-81
2022/05/07 15:15:35;;;;;;;3.42;3.20;;;;;;;;;;4909632;29;20481;-81
2022/05/07 15:18:03;;;;;;;5.05;2.90;;;;;;;;;;4926993;29;20103;-81
2022/05/07 15:20:41;;;;;;;3.67;3.30;;;;;;;;;;4926677;29;20078;-80
2022/05/07 15:23:14;;;;;;;3.20;3.00;;;;;;;;;;4897495;29;20043;-81
2022/05/07 15:25:48;;;;;;;3.47;3.20;;;;;;;;;;4901784;29;20051;-81
2022/05/07 15:28:16;;;;;;;3.72;3.42;;;;;;;;;;4909327;29;20048;-81
2022/05/07 15:30:44;;;;;;;4.57;4.20;;;;;;;;;;4937168;29;20047;-82
2022/05/07 15:38:47;;;;;;;3.17;2.85;;;;;;;;;;4915488;29;20123;-80
2022/05/07 15:41:14;;;;;;;3.00;2.90;;;;;;;;;;4893890;29;20067;-81
2022/05/07 15:43:49;;;;;;;3.40;3.20;;;;;;;;;;4892945;29;20058;-80
2022/05/07 15:46:17;;;;;;;3.53;3.08;;;;;;;;;;4893032;29;20043;-81
2022/05/07 15:48:45;;;;;;;3.10;2.90;;;;;;;;;;4892023;29;20051;-81
2022/05/07 15:51:13;;;;;;;3.20;3.03;;;;;;;;;;4934426;29;20060;-82
2022/05/07 15:53:40;;;;;;;3.47;3.28;;;;;;;;;;4910279;29;20051;-80